Time;durP1;ratioP1;P1;durP2;ratioP2;P2;SDS_P1;SDS_P2;PMS_P1;PMS_P2;Temp;Humidity;BMP_temperature;BMP_pressure;BME280_temperature;BME280_humidity;BME280_pressure;Samples;Min_cycle;Max_cycle;Signal;HPM_P1;HPM_P2
2023/09/05 00:00:17;;;;;;;6.07;4.70;;;9.80;99.90;;;;;;5030735;28;20029;-73
2023/09/05 00:02:45;;;;;;;5.18;4.45;;;9.80;99.90;;;;;;5030598;28;20030;-76
2023/09/05 00:05:11;;;;;;;6.90;4.78;;;9.80;99.90;;;;;;5030739;28;20081;-76
2023/09/05 00:07:39;;;;;;;6.30;4.82;;;9.80;99.90;;;;;;5030368;28;20036;-73
2023/09/05 00:10:13;;;;;;;5.63;5.03;;;9.80;99.90;;;;;;5030518;28;20026;-76
2023/09/05 00:12:40;;;;;;;9.32;5.20;;;9.80;99.90;;;;;;5028891;28;20470;-76
2023/09/05 00:15:15;;;;;;;6.05;4.63;;;9.80;99.90;;;;;;5029768;28;20025;-73
2023/09/05 00:17:42;;;;;;;6.55;4.70;;;9.80;99.90;;;;;;5028755;28;20104;-73
2023/09/05 00:20:08;;;;;;;6.55;4.28;;;9.80;99.90;;;;;;5029299;28;20025;-73
2023/09/05 00:22:34;;;;;;;4.47;4.00;;;9.70;99.90;;;;;;5028552;28;20395;-76
2023/09/05 00:25:00;;;;;;;5.00;4.00;;;9.70;99.90;;;;;;5030071;28;20053;-74
2023/09/05 00:27:26;;;;;;;6.03;4.30;;;9.70;99.90;;;;;;5030141;28;20029;-74
2023/09/05 00:29:51;;;;;;;4.95;4.32;;;9.70;99.90;;;;;;5041107;28;20017;-76
2023/09/05 00:32:18;;;;;;;6.78;4.88;;;9.60;99.90;;;;;;5034654;28;20037;-76
2023/09/05 00:34:44;;;;;;;6.00;4.30;;;9.60;99.90;;;;;;5047181;28;20025;-76
2023/09/05 00:37:10;;;;;;;6.95;3.95;;;9.60;99.90;;;;;;5035762;28;20045;-73
2023/09/05 00:39:43;;;;;;;7.28;4.13;;;9.60;99.90;;;;;;5049109;28;20031;-76
2023/09/05 00:42:13;;;;;;;5.10;4.25;;;9.60;99.90;;;;;;5031601;28;20018;-77
2023/09/05 00:44:39;;;;;;;5.22;4.20;;;9.60;99.90;;;;;;5027088;28;20104;-76
2023/09/05 00:47:05;;;;;;;6.25;4.72;;;9.60;99.90;;;;;;5032333;28;20052;-77
2023/09/05 00:49:38;;;;;;;7.18;5.07;;;9.60;99.90;;;;;;5029815;28;20066;-76
2023/09/05 00:52:05;;;;;;;5.88;3.70;;;9.60;99.90;;;;;;5017577;28;20104;-73
2023/09/05 00:54:31;;;;;;;5.07;3.50;;;9.60;99.90;;;;;;5029805;28;20034;-74
2023/09/05 00:56:57;;;;;;;4.35;3.85;;;9.50;99.90;;;;;;5033824;28;20070;-73
2023/09/05 00:59:23;;;;;;;3.97;3.53;;;9.40;99.90;;;;;;5036370;28;20482;-73
2023/09/05 01:01:49;;;;;;;6.43;3.80;;;9.40;99.90;;;;;;5028844;28;20030;-73
2023/09/05 01:04:16;;;;;;;4.30;3.40;;;9.40;99.90;;;;;;5028349;28;20060;-76
2023/09/05 01:07:06;;;;;;;3.92;3.50;;;9.40;99.90;;;;;;5028201;28;20032;-76
2023/09/05 01:09:42;;;;;;;3.80;3.50;;;9.30;99.90;;;;;;5029950;28;20047;-75
2023/09/05 01:12:08;;;;;;;4.05;3.50;;;9.30;99.90;;;;;;5028204;28;20391;-76
2023/09/05 01:14:33;;;;;;;3.75;3.35;;;9.30;99.90;;;;;;5029598;28;20103;-76
2023/09/05 01:17:02;;;;;;;4.68;3.72;;;9.30;99.90;;;;;;5018273;28;20120;-73
2023/09/05 01:19:29;;;;;;;3.53;3.22;;;9.30;99.90;;;;;;5041836;28;20378;-75
2023/09/05 01:22:32;;;;;;;4.15;3.67;;;9.30;99.90;;;;;;5029577;28;20710;-76
2023/09/05 01:24:57;;;;;;;4.68;3.78;;;9.30;99.90;;;;;;5040107;28;20509;-76
2023/09/05 01:27:26;;;;;;;4.50;4.10;;;9.20;99.90;;;;;;5035345;28;20046;-76
2023/09/05 01:29:52;;;;;;;4.93;3.65;;;9.20;99.90;;;;;;5037735;28;20029;-73
2023/09/05 01:32:20;;;;;;;4.00;3.55;;;9.20;99.90;;;;;;5028946;28;20030;-73
2023/09/05 01:34:45;;;;;;;4.38;3.35;;;9.20;99.90;;;;;;5040200;28;20037;-75
2023/09/05 01:37:14;;;;;;;4.45;3.50;;;9.20;99.90;;;;;;5030352;28;20056;-73
2023/09/05 01:39:40;;;;;;;4.18;3.72;;;9.10;99.90;;;;;;5029312;28;20443;-73
2023/09/05 01:42:06;;;;;;;4.55;3.83;;;9.10;99.90;;;;;;5040367;28;20021;-76
2023/09/05 01:44:34;;;;;;;4.20;3.40;;;9.10;99.90;;;;;;5039488;28;20029;-75
2023/09/05 01:47:00;;;;;;;3.03;2.80;;;9.10;99.90;;;;;;5049550;28;20032;-73
2023/09/05 01:49:26;;;;;;;4.65;3.40;;;9.10;99.90;;;;;;5051424;28;20021;-73
2023/09/05 01:51:51;;;;;;;3.42;3.13;;;9.10;99.90;;;;;;5019317;28;20382;-73
2023/09/05 01:54:17;;;;;;;4.40;3.70;;;9.00;99.90;;;;;;5032531;28;20037;-76
2023/09/05 01:56:42;;;;;;;4.10;3.55;;;9.00;99.90;;;;;;5032472;28;20021;-73
2023/09/05 01:59:08;;;;;;;4.05;3.60;;;9.00;99.90;;;;;;5031737;28;20057;-73
2023/09/05 02:01:34;;;;;;;4.18;3.42;;;9.00;99.90;;;;;;5031382;28;20066;-73
2023/09/05 02:04:00;;;;;;;4.72;3.53;;;9.00;99.90;;;;;;5033187;28;20029;-76
2023/09/05 02:06:26;;;;;;;6.05;3.40;;;9.00;99.90;;;;;;5037434;28;20457;-76
2023/09/05 02:08:51;;;;;;;4.35;3.47;;;9.00;99.90;;;;;;5040038;28;20025;-76
2023/09/05 02:11:17;;;;;;;4.05;3.33;;;9.00;99.90;;;;;;5031822;28;20032;-73
2023/09/05 02:13:43;;;;;;;5.25;4.18;;;9.00;99.90;;;;;;5032299;28;20030;-73
2023/09/05 02:16:08;;;;;;;6.65;3.85;;;9.00;99.90;;;;;;5048621;28;20021;-75
2023/09/05 02:18:34;;;;;;;5.72;4.30;;;9.00;99.90;;;;;;5051611;28;20032;-76
2023/09/05 02:21:01;;;;;;;6.07;3.95;;;9.00;99.90;;;;;;5046370;28;20018;-73
2023/09/05 02:23:27;;;;;;;3.70;3.20;;;9.00;99.90;;;;;;5032230;28;20081;-73
2023/09/05 02:26:00;;;;;;;4.10;3.70;;;8.90;99.90;;;;;;5030711;28;20010;-73
2023/09/05 02:28:26;;;;;;;4.05;3.40;;;8.90;99.90;;;;;;5031841;28;20407;-75
2023/09/05 02:30:53;;;;;;;5.20;4.20;;;8.90;99.90;;;;;;5043687;28;20025;-76
2023/09/05 02:33:19;;;;;;;5.60;4.80;;;8.90;99.90;;;;;;5043499;28;20509;-73
2023/09/05 02:35:45;;;;;;;6.35;4.38;;;8.90;99.90;;;;;;5049025;28;20033;-72
2023/09/05 02:38:10;;;;;;;8.85;6.40;;;8.90;99.90;;;;;;5050793;28;20048;-72
2023/09/05 02:40:41;;;;;;;5.72;3.78;;;8.90;99.90;;;;;;5050418;28;20107;-72
2023/09/05 02:43:07;;;;;;;6.80;4.50;;;8.90;99.90;;;;;;5037866;28;20018;-73
2023/09/05 02:45:33;;;;;;;6.43;4.65;;;9.00;99.90;;;;;;5050889;28;20056;-75
2023/09/05 02:47:58;;;;;;;6.15;4.60;;;9.00;99.90;;;;;;5048133;28;20021;-72
2023/09/05 02:50:24;;;;;;;4.35;3.85;;;8.90;99.90;;;;;;5025082;28;20387;-72
2023/09/05 02:52:49;;;;;;;5.68;4.28;;;9.00;99.90;;;;;;5024399;28;20041;-74
2023/09/05 02:55:15;;;;;;;3.63;3.33;;;8.90;99.90;;;;;;5025781;28;20134;-72
2023/09/05 02:57:41;;;;;;;3.95;3.22;;;8.80;99.90;;;;;;5023915;28;20097;-72
2023/09/05 03:00:07;;;;;;;3.30;3.00;;;8.70;99.90;;;;;;5031374;28;20093;-73
2023/09/05 03:02:33;;;;;;;5.40;3.33;;;8.70;99.90;;;;;;5031477;28;20482;-75
2023/09/05 03:04:59;;;;;;;3.30;2.90;;;8.70;99.90;;;;;;5036387;28;20020;-72
2023/09/05 03:07:25;;;;;;;2.60;2.10;;;8.60;99.90;;;;;;5038052;28;20033;-76
2023/09/05 03:09:51;;;;;;;2.97;2.30;;;8.60;99.90;;;;;;5044150;28;20025;-73
2023/09/05 03:12:17;;;;;;;4.35;3.40;;;8.60;99.90;;;;;;5042770;28;20044;-75
2023/09/05 03:14:46;;;;;;;8.27;3.30;;;8.50;99.90;;;;;;5031150;28;20116;-75
2023/09/05 03:17:12;;;;;;;3.72;2.63;;;8.50;99.90;;;;;;5042811;28;20382;-75
2023/09/05 03:19:39;;;;;;;3.63;2.78;;;8.50;99.90;;;;;;5029939;28;20021;-72
2023/09/05 03:22:05;;;;;;;4.60;2.83;;;8.50;99.90;;;;;;5030854;28;20128;-76
2023/09/05 03:24:32;;;;;;;7.47;3.40;;;8.50;99.90;;;;;;5031376;28;20033;-72
2023/09/05 03:26:57;;;;;;;4.32;3.92;;;8.50;99.90;;;;;;5030910;28;20064;-75
2023/09/05 03:29:23;;;;;;;5.15;3.80;;;8.60;99.90;;;;;;5031150;28;20086;-72
2023/09/05 03:31:49;;;;;;;4.80;4.18;;;8.60;99.90;;;;;;5030805;28;20104;-72
2023/09/05 03:34:14;;;;;;;6.05;4.57;;;8.60;99.90;;;;;;5031070;28;20479;-75
2023/09/05 03:36:40;;;;;;;5.85;4.63;;;8.60;99.90;;;;;;5029441;28;20388;-72
2023/09/05 03:39:05;;;;;;;5.45;4.57;;;8.60;99.90;;;;;;5030907;28;20014;-75
2023/09/05 03:41:31;;;;;;;11.65;4.88;;;8.60;99.90;;;;;;5029197;28;20474;-75
2023/09/05 03:43:57;;;;;;;11.43;5.38;;;8.60;99.90;;;;;;5030458;28;20092;-75
2023/09/05 03:46:22;;;;;;;9.35;4.85;;;8.60;99.90;;;;;;5030619;28;20100;-75
2023/09/05 03:48:49;;;;;;;6.40;4.57;;;8.60;99.90;;;;;;5036075;28;20040;-72
2023/09/05 03:51:15;;;;;;;6.18;5.43;;;8.60;99.90;;;;;;5018013;28;20033;-72
2023/09/05 03:53:40;;;;;;;6.13;4.72;;;8.60;99.90;;;;;;5030779;28;20018;-72
2023/09/05 03:56:06;;;;;;;6.97;4.85;;;8.60;99.90;;;;;;5043492;28;20040;-75
2023/09/05 03:58:32;;;;;;;7.20;4.65;;;8.60;99.90;;;;;;5048300;28;20017;-76
2023/09/05 04:01:02;;;;;;;7.95;5.00;;;8.60;99.90;;;;;;5050161;28;20025;-75
2023/09/05 04:03:27;;;;;;;6.18;4.70;;;8.60;99.90;;;;;;5049184;28;20021;-75
2023/09/05 04:05:53;;;;;;;8.02;4.93;;;8.60;99.90;;;;;;5036649;28;20075;-72
2023/09/05 04:08:19;;;;;;;4.35;3.10;;;8.60;99.90;;;;;;5029070;28;20018;-72
2023/09/05 04:10:44;;;;;;;2.25;2.08;;;8.60;99.90;;;;;;5030192;28;20036;-72
2023/09/05 04:13:10;;;;;;;2.50;2.30;;;8.40;99.90;;;;;;5030284;28;20394;-75
2023/09/05 04:15:36;;;;;;;3.38;3.08;;;8.40;99.90;;;;;;5029114;28;20071;-72
2023/09/05 04:18:02;;;;;;;4.97;3.70;;;8.40;99.90;;;;;;5028981;28;20025;-72
2023/09/05 04:20:28;;;;;;;3.92;3.00;;;8.40;99.90;;;;;;5030196;28;20037;-72
2023/09/05 04:22:53;;;;;;;3.90;3.10;;;8.40;99.90;;;;;;5042070;28;20108;-75
2023/09/05 04:25:19;;;;;;;5.68;4.03;;;8.40;99.90;;;;;;5026514;28;20486;-75
2023/09/05 04:27:45;;;;;;;5.82;4.28;;;8.40;99.90;;;;;;5027078;28;20029;-75
2023/09/05 04:30:12;;;;;;;7.07;4.13;;;8.40;99.90;;;;;;5041409;28;20037;-73
2023/09/05 04:32:38;;;;;;;9.43;4.28;;;8.40;99.90;;;;;;5047573;28;20017;-72
2023/09/05 04:35:05;;;;;;;8.98;5.03;;;8.40;99.90;;;;;;5043214;28;20071;-73
2023/09/05 04:37:31;;;;;;;9.20;5.55;;;8.50;99.90;;;;;;5034376;28;20116;-74
2023/09/05 04:39:57;;;;;;;6.20;5.28;;;8.50;99.90;;;;;;5032269;28;20045;-72
2023/09/05 04:42:25;;;;;;;8.80;6.00;;;8.60;99.90;;;;;;5044403;28;20364;-75
2023/09/05 04:44:51;;;;;;;8.63;5.63;;;8.80;99.90;;;;;;5040327;28;20049;-72
2023/09/05 04:47:23;;;;;;;8.32;5.32;;;8.90;99.90;;;;;;5026948;28;20571;-73
2023/09/05 04:49:50;;;;;;;7.35;5.15;;;8.90;99.90;;;;;;5026791;28;20017;-75
2023/09/05 04:52:17;;;;;;;5.88;4.65;;;8.90;99.90;;;;;;5016252;28;20010;-73
2023/09/05 04:54:42;;;;;;;5.30;4.80;;;8.90;99.90;;;;;;5027884;28;20026;-72
2023/09/05 04:57:10;;;;;;;4.55;3.90;;;9.00;99.90;;;;;;5033359;28;20030;-76
2023/09/05 04:59:37;;;;;;;5.68;4.07;;;9.00;99.90;;;;;;5028544;28;20094;-76
2023/09/05 05:02:06;;;;;;;7.07;3.95;;;9.00;99.90;;;;;;5029244;28;20021;-75
2023/09/05 05:04:32;;;;;;;19.60;16.77;;;9.00;99.90;;;;;;5030811;28;20082;-76
2023/09/05 05:06:57;;;;;;;11.18;9.93;;;9.00;99.90;;;;;;5038113;28;20037;-75
2023/09/05 05:09:23;;;;;;;10.65;8.90;;;9.00;99.90;;;;;;5041831;28;20101;-75
2023/09/05 05:11:49;;;;;;;11.65;8.25;;;9.10;99.90;;;;;;5029413;28;20025;-72
2023/09/05 05:14:15;;;;;;;10.90;7.78;;;9.30;99.90;;;;;;5029438;28;20032;-73
2023/09/05 05:16:43;;;;;;;12.10;8.48;;;9.50;99.90;;;;;;5029557;28;20037;-72
2023/09/05 05:19:10;;;;;;;9.48;7.43;;;9.60;99.90;;;;;;5028267;28;20363;-74
2023/09/05 05:21:35;;;;;;;9.50;6.88;;;9.80;99.90;;;;;;5031839;28;20025;-73
2023/09/05 05:24:01;;;;;;;6.57;5.88;;;10.00;99.90;;;;;;5029196;28;20133;-75
2023/09/05 05:26:28;;;;;;;7.78;6.20;;;10.10;99.90;;;;;;5030556;28;20036;-75
2023/09/05 05:28:54;;;;;;;8.07;6.38;;;10.40;99.90;;;;;;5031205;28;20046;-75
2023/09/05 05:31:19;;;;;;;10.82;6.93;;;10.60;99.90;;;;;;5039212;28;20033;-75
2023/09/05 05:33:45;;;;;;;10.32;6.95;;;10.80;99.90;;;;;;5029472;28;20034;-76
2023/09/05 05:36:10;;;;;;;11.40;7.40;;;11.00;99.90;;;;;;5039106;27;20033;-72
2023/09/05 05:38:36;;;;;;;11.85;6.47;;;11.20;99.90;;;;;;5030136;28;20068;-73
2023/09/05 05:41:02;;;;;;;37.35;11.52;;;11.40;99.90;;;;;;5030449;28;20051;-73
2023/09/05 05:43:29;;;;;;;27.90;8.68;;;11.60;99.90;;;;;;5030992;28;20383;-75
2023/09/05 05:45:55;;;;;;;17.40;7.78;;;11.80;99.90;;;;;;5028234;28;20017;-75
2023/09/05 05:48:20;;;;;;;12.35;7.63;;;12.00;99.90;;;;;;5032244;28;20516;-75
2023/09/05 05:50:46;;;;;;;14.00;6.43;;;12.20;99.90;;;;;;5030522;28;20022;-75
2023/09/05 05:53:12;;;;;;;8.90;5.72;;;12.40;99.90;;;;;;5027401;28;20033;-73
2023/09/05 05:55:38;;;;;;;9.63;6.30;;;12.60;99.90;;;;;;5032223;28;20060;-75
2023/09/05 05:58:04;;;;;;;9.65;7.18;;;12.80;99.90;;;;;;5034593;28;20029;-74
2023/09/05 06:00:29;;;;;;;9.45;6.93;;;13.00;99.90;;;;;;5050538;28;20033;-72
2023/09/05 06:02:55;;;;;;;13.80;7.45;;;13.30;99.90;;;;;;5039863;28;20037;-73
2023/09/05 06:05:22;;;;;;;12.73;8.00;;;13.50;99.90;;;;;;5036551;28;20072;-75
2023/09/05 06:07:49;;;;;;;9.77;7.95;;;13.80;99.90;;;;;;5024351;28;20029;-75
2023/09/05 06:10:15;;;;;;;13.07;8.60;;;14.00;99.90;;;;;;5027815;28;20022;-73
2023/09/05 06:12:41;;;;;;;11.45;7.95;;;14.30;99.90;;;;;;5032267;28;20029;-73
2023/09/05 06:15:08;;;;;;;15.18;8.55;;;14.50;99.90;;;;;;5032161;28;20116;-73
2023/09/05 06:17:34;;;;;;;11.90;8.93;;;14.80;99.90;;;;;;5031693;28;20026;-74
2023/09/05 06:19:59;;;;;;;13.60;10.13;;;15.00;99.90;;;;;;5032707;28;20096;-73
2023/09/05 06:22:25;;;;;;;19.67;10.40;;;15.20;99.90;;;;;;5043594;28;20490;-73
2023/09/05 06:24:50;;;;;;;12.63;8.93;;;15.40;99.90;;;;;;5028425;28;20029;-73
2023/09/05 06:27:16;;;;;;;15.73;11.35;;;15.60;99.90;;;;;;5047429;28;20018;-73
2023/09/05 06:29:41;;;;;;;15.68;10.00;;;15.80;99.90;;;;;;5033074;28;20068;-75
2023/09/05 06:32:07;;;;;;;18.45;9.90;;;16.00;99.90;;;;;;5038151;28;20475;-76
2023/09/05 06:34:33;;;;;;;13.57;9.35;;;16.20;99.90;;;;;;5031524;28;20112;-75
2023/09/05 06:37:01;;;;;;;14.82;11.43;;;16.30;99.90;;;;;;5024172;28;20077;-73
2023/09/05 06:39:27;;;;;;;13.32;10.13;;;16.60;99.90;;;;;;5049749;28;20025;-76
2023/09/05 06:41:52;;;;;;;17.30;11.55;;;16.70;99.90;;;;;;5038489;28;20108;-75
2023/09/05 06:44:18;;;;;;;16.83;10.30;;;16.80;99.90;;;;;;5018778;28;20074;-75
2023/09/05 06:46:43;;;;;;;13.57;10.20;;;17.00;99.90;;;;;;5031772;28;20030;-75
2023/09/05 06:49:09;;;;;;;10.25;7.97;;;17.20;99.90;;;;;;5031768;28;20474;-73
2023/09/05 06:51:35;;;;;;;9.02;7.53;;;17.30;99.90;;;;;;5019229;28;20033;-75
2023/09/05 06:54:00;;;;;;;12.68;7.38;;;17.40;99.90;;;;;;5031802;28;20081;-75
2023/09/05 06:56:26;;;;;;;14.15;8.18;;;17.60;99.90;;;;;;5044670;28;20029;-74
2023/09/05 06:58:52;;;;;;;9.23;5.80;;;17.70;99.90;;;;;;5031756;28;20050;-73
2023/09/05 07:01:18;;;;;;;8.60;6.00;;;17.80;99.90;;;;;;5031531;28;20382;-73
2023/09/05 07:03:43;;;;;;;10.18;6.25;;;18.00;99.00;;;;;;5031597;28;20101;-75
2023/09/05 07:06:09;;;;;;;8.77;6.53;;;17.90;94.90;;;;;;5031587;28;20040;-76
2023/09/05 07:08:35;;;;;;;6.88;5.57;;;18.10;96.80;;;;;;5030412;28;20463;-74
2023/09/05 07:11:00;;;;;;;6.60;4.68;;;18.20;94.60;;;;;;5032209;28;20024;-76
2023/09/05 07:13:26;;;;;;;5.03;4.53;;;18.40;91.80;;;;;;5030882;28;20025;-74
2023/09/05 07:15:52;;;;;;;6.97;4.57;;;18.50;92.10;;;;;;5032112;28;20041;-76
2023/09/05 07:18:18;;;;;;;5.65;4.65;;;18.50;90.10;;;;;;5032514;28;20032;-73
2023/09/05 07:20:44;;;;;;;7.45;5.13;;;18.60;87.50;;;;;;5037212;28;20484;-76
2023/09/05 07:23:09;;;;;;;5.97;4.60;;;18.80;88.70;;;;;;5029510;28;20070;-76
2023/09/05 07:25:39;;;;;;;7.25;4.43;;;18.80;86.70;;;;;;5032351;28;20433;-73
2023/09/05 07:28:05;;;;;;;8.13;4.05;;;18.90;84.90;;;;;;5030704;28;20049;-74
2023/09/05 07:30:34;;;;;;;6.35;3.83;;;19.10;85.40;;;;;;5030575;28;20028;-73
2023/09/05 07:33:00;;;;;;;10.13;5.35;;;19.20;87.30;;;;;;5029282;28;20036;-73
2023/09/05 07:35:25;;;;;;;7.75;4.40;;;19.20;84.20;;;;;;5029884;28;20037;-76
2023/09/05 07:37:51;;;;;;;11.88;5.25;;;19.40;86.90;;;;;;5030273;28;20510;-74
2023/09/05 07:40:17;;;;;;;8.02;3.85;;;19.50;84.80;;;;;;5030620;28;20051;-74
2023/09/05 07:42:43;;;;;;;4.93;4.03;;;19.60;82.20;;;;;;5036116;28;20025;-74
2023/09/05 07:45:12;;;;;;;4.55;3.97;;;19.70;80.20;;;;;;5036213;28;20493;-76
2023/09/05 07:47:37;;;;;;;7.15;4.28;;;19.80;81.40;;;;;;5029400;28;20038;-74
2023/09/05 07:50:04;;;;;;;4.72;3.55;;;19.90;79.90;;;;;;5026348;28;20494;-76
2023/09/05 07:52:29;;;;;;;7.18;4.28;;;19.90;77.90;;;;;;5032699;28;20021;-76
2023/09/05 07:54:55;;;;;;;7.05;4.00;;;20.20;79.90;;;;;;5029844;28;20082;-76
2023/09/05 07:57:20;;;;;;;5.20;4.70;;;20.20;79.10;;;;;;5030155;28;20053;-76
2023/09/05 07:59:46;;;;;;;5.72;5.05;;;20.30;77.60;;;;;;5030062;28;20021;-76
2023/09/05 08:02:12;;;;;;;6.03;4.68;;;20.40;77.00;;;;;;5030644;28;20021;-76
2023/09/05 08:04:38;;;;;;;8.30;5.30;;;20.40;75.20;;;;;;5030919;28;20024;-75
2023/09/05 08:07:06;;;;;;;4.60;4.07;;;20.50;75.50;;;;;;5030959;28;20026;-75
2023/09/05 08:09:32;;;;;;;5.10;3.85;;;20.50;76.10;;;;;;5030236;28;20374;-75
2023/09/05 08:11:58;;;;;;;4.82;4.18;;;20.60;75.70;;;;;;5037646;28;20112;-75
2023/09/05 08:14:23;;;;;;;8.32;4.63;;;20.70;73.30;;;;;;5044969;28;20025;-74
2023/09/05 08:16:49;;;;;;;5.18;3.95;;;20.90;74.00;;;;;;5030389;28;20519;-77
2023/09/05 08:19:15;;;;;;;4.28;3.38;;;20.80;72.90;;;;;;5030369;28;20025;-77
2023/09/05 08:21:40;;;;;;;4.28;3.50;;;20.80;71.40;;;;;;5034911;28;20068;-77
2023/09/05 08:24:07;;;;;;;5.90;3.30;;;20.90;69.60;;;;;;5037974;28;20026;-76
2023/09/05 08:26:34;;;;;;;5.82;2.92;;;20.90;68.80;;;;;;5034733;28;20021;-76
2023/09/05 08:29:03;;;;;;;4.63;3.30;;;21.00;69.00;;;;;;5048198;28;20025;-75
2023/09/05 08:31:30;;;;;;;5.18;3.38;;;21.00;67.70;;;;;;5034309;28;20026;-75
2023/09/05 08:33:55;;;;;;;2.92;2.38;;;21.10;66.40;;;;;;5030346;28;20025;-75
2023/09/05 08:36:21;;;;;;;3.35;3.03;;;21.10;65.70;;;;;;5043661;28;20055;-75
2023/09/05 08:38:47;;;;;;;4.13;2.30;;;21.20;65.70;;;;;;5046919;28;20052;-75
2023/09/05 08:41:13;;;;;;;4.15;2.65;;;21.30;67.20;;;;;;5038071;28;20419;-76
2023/09/05 08:43:38;;;;;;;3.55;3.00;;;21.30;65.80;;;;;;5032503;28;20028;-75
2023/09/05 08:46:04;;;;;;;6.38;3.13;;;21.40;64.20;;;;;;5049875;28;20029;-75
2023/09/05 08:48:31;;;;;;;4.22;2.83;;;21.40;63.60;;;;;;5032451;28;20408;-75
2023/09/05 08:51:00;;;;;;;2.65;2.28;;;21.60;64.80;;;;;;5018988;28;20059;-75
2023/09/05 08:53:58;;;;;;;4.60;2.75;;;21.60;64.20;;;;;;5027736;28;20021;-76
2023/09/05 08:56:25;;;;;;;11.05;3.55;;;21.70;63.20;;;;;;5014105;28;20129;-76
2023/09/05 08:58:52;;;;;;;3.28;2.97;;;21.80;63.20;;;;;;5030023;28;20109;-76
2023/09/05 09:01:19;;;;;;;3.25;2.20;;;21.80;62.10;;;;;;5029951;28;20104;-76
2023/09/05 09:03:45;;;;;;;3.20;2.63;;;21.90;62.50;;;;;;5029941;28;20072;-76
2023/09/05 09:06:10;;;;;;;4.38;3.08;;;22.00;62.60;;;;;;5029779;28;20053;-76
2023/09/05 09:08:44;;;;;;;2.40;2.20;;;22.10;62.80;;;;;;5028441;28;20064;-76
2023/09/05 09:11:10;;;;;;;4.82;2.47;;;22.10;62.10;;;;;;5029468;28;20017;-76
2023/09/05 09:13:40;;;;;;;4.07;2.95;;;22.10;60.40;;;;;;5028441;28;20025;-76
2023/09/05 09:16:06;;;;;;;3.58;2.42;;;22.00;59.50;;;;;;5032931;28;20074;-76
2023/09/05 09:18:32;;;;;;;2.92;2.10;;;22.00;59.30;;;;;;5038758;28;20028;-76
2023/09/05 09:21:05;;;;;;;5.70;3.00;;;21.90;59.50;;;;;;5029248;28;20028;-76
2023/09/05 09:23:33;;;;;;;3.60;2.45;;;22.00;61.20;;;;;;5029735;28;20040;-76
2023/09/05 09:25:59;;;;;;;3.90;2.53;;;22.00;60.10;;;;;;5029462;28;20029;-76
2023/09/05 09:28:28;;;;;;;3.40;2.50;;;22.00;60.50;;;;;;5029749;28;20074;-76
2023/09/05 09:30:59;;;;;;;3.15;2.42;;;22.10;59.70;;;;;;5029437;28;20024;-76
2023/09/05 09:33:25;;;;;;;3.08;2.78;;;22.10;59.90;;;;;;5037886;28;20120;-76
2023/09/05 09:36:01;;;;;;;2.65;2.45;;;22.10;60.40;;;;;;5040988;28;20132;-76
2023/09/05 09:38:28;;;;;;;2.88;2.65;;;22.20;61.30;;;;;;5045271;28;20405;-76
2023/09/05 09:40:55;;;;;;;2.85;2.60;;;22.40;60.40;;;;;;5039190;28;20026;-76
2023/09/05 09:43:20;;;;;;;4.25;2.35;;;22.50;61.00;;;;;;5045198;28;20028;-76
2023/09/05 09:45:46;;;;;;;4.55;2.53;;;22.60;60.00;;;;;;5047306;28;20021;-76
2023/09/05 09:48:15;;;;;;;3.92;2.88;;;22.70;59.80;;;;;;5044847;28;20021;-76
2023/09/05 09:50:43;;;;;;;4.35;2.65;;;22.80;58.10;;;;;;5021524;28;20051;-76
2023/09/05 09:53:12;;;;;;;3.63;2.85;;;22.80;58.80;;;;;;5036138;28;20543;-76
2023/09/05 09:55:42;;;;;;;3.22;2.35;;;22.90;58.80;;;;;;5027916;28;20053;-76
2023/09/05 09:58:10;;;;;;;4.10;3.33;;;22.90;58.90;;;;;;5027610;28;20031;-76
2023/09/05 10:00:38;;;;;;;17.45;9.27;;;23.00;58.60;;;;;;5032348;28;20104;-77
2023/09/05 10:03:08;;;;;;;2.58;2.38;;;23.10;58.50;;;;;;5039174;28;20040;-76
2023/09/05 10:05:34;;;;;;;3.97;2.65;;;22.90;57.40;;;;;;5029202;28;20033;-77
2023/09/05 10:08:00;;;;;;;2.70;2.42;;;22.90;55.60;;;;;;5038120;28;20017;-76
2023/09/05 10:10:28;;;;;;;3.67;2.38;;;23.10;57.10;;;;;;5039586;28;20026;-76
2023/09/05 10:12:56;;;;;;;2.80;2.50;;;23.00;56.50;;;;;;5027891;28;20024;-77
2023/09/05 10:15:23;;;;;;;2.63;2.25;;;22.90;56.30;;;;;;5044061;28;20041;-76
2023/09/05 10:17:50;;;;;;;2.50;2.30;;;23.00;57.10;;;;;;5051820;28;20040;-76
2023/09/05 10:20:19;;;;;;;2.95;2.60;;;22.80;57.20;;;;;;5051763;28;20021;-76
2023/09/05 10:22:44;;;;;;;3.08;2.70;;;22.50;56.60;;;;;;5038182;28;20029;-76
2023/09/05 10:25:13;;;;;;;2.95;2.40;;;22.50;56.40;;;;;;5050318;28;20021;-77
2023/09/05 10:27:39;;;;;;;5.03;2.50;;;22.50;57.80;;;;;;5037851;28;20021;-76
2023/09/05 10:30:07;;;;;;;3.15;2.20;;;22.60;59.00;;;;;;5043175;28;20131;-76
2023/09/05 10:32:33;;;;;;;3.25;2.70;;;22.50;56.80;;;;;;5046433;28;20051;-77
2023/09/05 10:35:02;;;;;;;2.38;2.17;;;22.40;55.60;;;;;;5050344;28;20060;-76
2023/09/05 10:37:49;;;;;;;5.57;2.55;;;22.50;57.00;;;;;;5035231;28;20053;-76
2023/09/05 10:40:17;;;;;;;3.17;2.28;;;22.50;55.90;;;;;;5044447;28;20412;-76
2023/09/05 10:42:50;;;;;;;2.45;2.15;;;22.60;57.00;;;;;;5045303;28;20049;-76
2023/09/05 10:45:17;;;;;;;2.28;2.03;;;22.70;56.70;;;;;;5032235;28;20026;-76
2023/09/05 10:47:43;;;;;;;2.85;2.65;;;22.80;56.50;;;;;;5030728;28;20555;-76
2023/09/05 10:50:19;;;;;;;2.60;2.40;;;22.80;55.20;;;;;;5027519;28;20055;-77
2023/09/05 10:52:51;;;;;;;2.83;2.05;;;22.80;55.40;;;;;;5036106;28;20021;-76
2023/09/05 10:55:29;;;;;;;2.45;1.80;;;23.00;55.40;;;;;;5045010;28;20106;-77
2023/09/05 10:57:55;;;;;;;3.03;2.15;;;23.10;55.10;;;;;;5031056;28;20030;-77
2023/09/05 11:00:23;;;;;;;3.17;1.95;;;23.20;53.80;;;;;;5041935;28;20116;-76
2023/09/05 11:02:49;;;;;;;4.22;2.55;;;23.30;52.70;;;;;;5044049;28;20497;-77
2023/09/05 11:05:18;;;;;;;5.07;2.20;;;23.40;53.80;;;;;;5031631;28;20028;-77
2023/09/05 11:07:49;;;;;;;2.78;2.17;;;23.40;52.70;;;;;;5045325;28;20053;-76
2023/09/05 11:10:26;;;;;;;2.45;2.05;;;23.40;53.10;;;;;;5049466;28;20028;-76
2023/09/05 11:12:51;;;;;;;3.15;2.85;;;23.30;53.70;;;;;;5049899;28;20040;-77
2023/09/05 11:15:30;;;;;;;3.30;2.58;;;23.40;53.90;;;;;;5040518;28;20133;-76
2023/09/05 11:18:04;;;;;;;4.97;2.75;;;23.30;52.30;;;;;;5028901;28;20077;-76
2023/09/05 11:20:50;;;;;;;3.50;2.22;;;23.40;54.50;;;;;;5043097;28;20474;-76
2023/09/05 11:23:25;;;;;;;3.08;2.58;;;23.40;52.20;;;;;;5041611;28;20026;-77
2023/09/05 11:25:55;;;;;;;4.72;2.35;;;23.40;52.20;;;;;;5030992;28;20017;-76
2023/09/05 11:28:22;;;;;;;2.50;2.08;;;23.30;53.20;;;;;;5031094;28;20021;-77
2023/09/05 11:30:51;;;;;;;3.60;2.63;;;23.40;52.40;;;;;;5030717;28;20092;-77
2023/09/05 11:33:17;;;;;;;3.45;2.20;;;23.30;51.80;;;;;;5039975;28;20415;-76
2023/09/05 11:35:45;;;;;;;2.92;2.40;;;23.40;52.70;;;;;;5030619;28;20046;-76
2023/09/05 11:38:14;;;;;;;2.40;2.20;;;23.40;53.10;;;;;;5036427;28;20402;-77
2023/09/05 11:40:41;;;;;;;2.42;2.22;;;23.30;52.60;;;;;;5035183;28;20033;-77
2023/09/05 11:43:09;;;;;;;3.90;2.70;;;23.30;54.00;;;;;;5030581;28;20026;-77
2023/09/05 11:45:37;;;;;;;2.22;1.70;;;23.30;53.90;;;;;;5048874;28;20036;-77
2023/09/05 11:48:04;;;;;;;3.67;2.20;;;23.30;52.40;;;;;;5050177;28;20028;-76
2023/09/05 11:50:33;;;;;;;2.53;1.95;;;23.20;51.70;;;;;;5037413;28;20018;-76
2023/09/05 11:53:01;;;;;;;3.85;2.67;;;23.40;53.90;;;;;;5030368;28;20028;-77
2023/09/05 11:55:29;;;;;;;2.35;2.03;;;23.40;51.70;;;;;;5037210;28;20102;-77
2023/09/05 11:57:57;;;;;;;2.95;2.33;;;23.40;50.10;;;;;;5042893;28;20376;-76
2023/09/05 12:00:24;;;;;;;3.65;2.30;;;23.40;49.00;;;;;;5038474;28;20408;-76
2023/09/05 12:02:55;;;;;;;3.08;2.47;;;23.40;49.00;;;;;;5037985;28;20458;-76
2023/09/05 12:05:20;;;;;;;2.55;2.35;;;23.50;50.20;;;;;;5047560;28;20029;-77
2023/09/05 12:07:50;;;;;;;2.88;2.50;;;23.50;51.10;;;;;;5018874;28;20546;-77
2023/09/05 12:10:16;;;;;;;2.63;2.15;;;23.50;51.00;;;;;;5015997;28;20044;-76
2023/09/05 12:13:03;;;;;;;2.67;2.40;;;23.60;50.50;;;;;;5011977;28;20030;-77
2023/09/05 12:15:34;;;;;;;2.60;2.17;;;23.60;49.60;;;;;;5029913;28;20030;-76
2023/09/05 12:18:04;;;;;;;3.42;2.55;;;23.60;51.00;;;;;;5039411;28;20066;-76
2023/09/05 12:20:30;;;;;;;2.47;1.98;;;23.60;51.30;;;;;;5030436;28;20021;-77
2023/09/05 12:22:56;;;;;;;2.20;1.90;;;23.60;50.40;;;;;;5028530;28;20025;-76
2023/09/05 12:25:24;;;;;;;2.60;2.20;;;23.60;49.70;;;;;;5034801;28;20047;-76
2023/09/05 12:27:54;;;;;;;2.47;2.35;;;23.60;50.60;;;;;;5042486;28;20108;-77
2023/09/05 12:30:27;;;;;;;2.65;2.33;;;23.60;51.00;;;;;;5034027;28;20053;-76
2023/09/05 12:32:58;;;;;;;3.95;2.40;;;23.70;50.00;;;;;;5039107;28;20024;-76
2023/09/05 12:35:25;;;;;;;2.38;2.00;;;23.60;49.40;;;;;;5042018;28;20121;-77
2023/09/05 12:37:53;;;;;;;5.50;2.42;;;23.50;48.60;;;;;;5041332;28;20053;-76
2023/09/05 12:40:21;;;;;;;3.95;2.85;;;23.60;48.40;;;;;;5031092;28;20029;-77
2023/09/05 12:42:47;;;;;;;2.45;2.25;;;23.50;48.60;;;;;;5031441;28;20315;-76
2023/09/05 12:45:13;;;;;;;4.22;2.63;;;23.40;49.40;;;;;;5049621;28;20473;-76
2023/09/05 12:47:40;;;;;;;4.53;2.70;;;23.40;50.10;;;;;;5049645;28;20481;-77
2023/09/05 12:50:12;;;;;;;2.08;1.98;;;23.50;51.80;;;;;;5030295;28;20044;-76